Hovedside
METAR-TAF:

METAR-TAF

Lufthavner :

Gran Canaria internasjonale lufthavn

Gran Canaria, Spania

breddegrad: 27-56N, lengdegrad: 015-23W, høyde over havet: 23 m

Gjeldene værobservasjon

Denne rapporten ble laget for 20 minutter siden, klokken 14:30 UTC
Vind 13 kt fra Øst-nordøst
Temperatur 19°C
Luftfuktighet 60%
Trykk 1023 hPa
Sikt 10 km eller mer
Få skyer i en høyde av 3500 ft

METAR: GCLP 271430Z 06013KT 9999 FEW035 19/11 Q1023 NOSIG

Tid: 14:50 (14:50 UTC)

Varsel

Denne rapporten ble laget for 50 minutter siden, klokken 14:00 UTC
Varsel gyldig fra 27. klokken 15 UTC til 28. klokken 15 UTC
Vind 13 kt fra Nord
Sikt 10 km eller mer
Spredte skyer i en høyde av 3500 ft
Midlertidig
fra 27. klokken 15 UTC til 27. klokken 18 UTC
Vind 9 kt fra Øst-nordøst

TAF: GCLP 271400Z 2715/2815 36013KT 9999 SCT035 TX21/2815Z TN15/2806Z TEMPO 2715/2718 06009KT

Værobservasjoner og værvarsel for over 4000 flyplasser (METAR- og TAF-rapporter).

Tilgjengelige stasjoner er representert av de røde og gule prikkene på kartet.

Hold musepekeren over prikken for å se navnet på stasjonen.

Klikk så for å se værobservasjoner og -varsler.

For å forandre kartet kan du klikke på den grønne knappen med svart kryss for å zoome inn, på den grønne knappen med strek for å zoome ut, eller på de grønne pilene for å se tilstøtende kart.


METAR-TAF: